Time,TemperatureF,DewpointF,PressureIn,WindDirection,WindDirectionDegrees,WindSpeedMPH,WindSpeedGustMPH,Humidity,HourlyPrecipIn,Conditions,Clouds,dailyrainin,SolarRadiationWatts/m^2,SoftwareType,DateUTC
2013-03-10 00:07:00,45.1,44.0,30.32,SE,129,0.0,4.0,96,0.00,,,0.00,0,weatherlink.com 1.10,2013-03-10 08:07:00,
2013-03-10 00:22:00,45.5,45.0,30.33,SE,128,4.0,6.0,97,0.00,,,0.00,0,weatherlink.com 1.10,2013-03-10 08:22:00,
2013-03-10 00:38:00,45.3,45.0,30.32,ESE,110,2.0,7.0,97,0.00,,,0.00,0,weatherlink.com 1.10,2013-03-10 08:38:00,
2013-03-10 00:53:00,45.2,44.0,30.34,ESE,122,3.0,10.0,97,0.00,,,0.00,0,weatherlink.com 1.10,2013-03-10 08:53:00,
2013-03-10 01:08:00,45.2,44.0,30.33,East,95,7.0,7.0,97,0.00,,,0.00,0,weatherlink.com 1.10,2013-03-10 09:08:00,
2013-03-10 01:23:00,45.8,45.0,30.33,East,93,0.0,7.0,97,0.00,,,0.00,0,weatherlink.com 1.10,2013-03-10 09:23:00,
2013-03-10 01:38:00,44.8,44.0,30.33,East,93,0.0,0.0,97,0.00,,,0.00,0,weatherlink.com 1.10,2013-03-10 09:38:00,
2013-03-10 01:54:00,45.0,44.0,30.33,SE,128,2.0,4.0,97,0.00,,,0.00,0,weatherlink.com 1.10,2013-03-10 09:54:00,
2013-03-10 03:08:00,45.0,44.0,30.33,SE,129,6.0,7.0,97,0.00,,,0.00,0,weatherlink.com 1.10,2013-03-10 10:08:00,
2013-03-10 03:23:00,44.5,44.0,30.34,SE,144,4.0,7.0,97,0.00,,,0.00,0,weatherlink.com 1.10,2013-03-10 10:23:00,
2013-03-10 03:38:00,43.4,43.0,30.33,ESE,112,0.0,4.0,97,0.00,,,0.00,0,weatherlink.com 1.10,2013-03-10 10:38:00,
2013-03-10 03:54:00,43.5,43.0,30.32,ESE,112,1.0,1.0,98,0.00,,,0.00,0,weatherlink.com 1.10,2013-03-10 10:54:00,
2013-03-10 04:09:00,43.5,43.0,30.31,SE,138,2.0,5.0,98,0.01,,,0.01,0,weatherlink.com 1.10,2013-03-10 11:09:00,
2013-03-10 04:24:00,43.3,43.0,30.31,SSE,156,4.0,6.0,98,0.01,,,0.01,0,weatherlink.com 1.10,2013-03-10 11:24:00,
2013-03-10 04:39:00,43.3,43.0,30.31,SE,130,8.0,9.0,98,0.01,,,0.01,0,weatherlink.com 1.10,2013-03-10 11:39:00,
2013-03-10 04:54:00,42.9,42.0,30.32,ESE,105,6.0,10.0,98,0.01,,,0.01,0,weatherlink.com 1.10,2013-03-10 11:54:00,
2013-03-10 05:09:00,42.8,42.0,30.32,ESE,116,1.0,7.0,98,0.00,,,0.01,0,weatherlink.com 1.10,2013-03-10 12:09:00,
2013-03-10 05:39:00,43.0,43.0,30.32,ESE,119,2.0,3.0,98,0.00,,,0.01,0,weatherlink.com 1.10,2013-03-10 12:39:00,
2013-03-10 05:54:00,43.4,43.0,30.32,ESE,123,4.0,6.0,98,0.00,,,0.01,0,weatherlink.com 1.10,2013-03-10 12:54:00,
2013-03-10 06:10:00,44.1,44.0,30.32,SE,140,4.0,5.0,99,0.00,,,0.01,0,weatherlink.com 1.10,2013-03-10 13:10:00,
2013-03-10 06:25:00,43.4,43.0,30.32,East,84,0.0,6.0,99,0.00,,,0.01,0,weatherlink.com 1.10,2013-03-10 13:25:00,
2013-03-10 06:40:00,43.7,44.0,30.33,SSE,148,1.0,2.0,99,0.00,,,0.01,0,weatherlink.com 1.10,2013-03-10 13:40:00,
2013-03-10 06:55:00,44.2,44.0,30.33,SE,130,6.0,6.0,99,0.00,,,0.01,0,weatherlink.com 1.10,2013-03-10 13:55:00,
2013-03-10 07:10:00,44.5,44.0,30.33,SSE,151,1.0,6.0,99,0.00,,,0.01,0,weatherlink.com 1.10,2013-03-10 14:10:00,
2013-03-10 07:25:00,44.2,44.0,30.33,ESE,107,0.0,2.0,99,0.00,,,0.01,5,weatherlink.com 1.10,2013-03-10 14:25:00,
2013-03-10 07:40:00,43.3,43.0,30.34,ESE,105,0.0,4.0,99,0.00,,,0.01,12,weatherlink.com 1.10,2013-03-10 14:40:00,
2013-03-10 07:55:00,44.0,44.0,30.33,SSE,153,1.0,4.0,99,0.00,,,0.01,33,weatherlink.com 1.10,2013-03-10 14:55:00,
2013-03-10 08:10:00,42.8,43.0,30.34,SE,133,0.0,4.0,99,0.00,,,0.01,42,weatherlink.com 1.10,2013-03-10 15:10:00,
2013-03-10 08:26:00,42.3,42.0,30.34,SSE,157,1.0,5.0,99,0.00,,,0.01,65,weatherlink.com 1.10,2013-03-10 15:26:00,
2013-03-10 08:42:00,42.3,42.0,30.36,SSE,155,0.0,1.0,99,0.00,,,0.01,155,weatherlink.com 1.10,2013-03-10 15:42:00,
2013-03-10 08:57:00,42.8,43.0,30.36,SE,138,1.0,5.0,99,0.00,,,0.01,127,weatherlink.com 1.10,2013-03-10 15:57:00,
2013-03-10 09:11:00,44.2,44.0,30.36,ESE,118,0.0,2.0,100,0.00,,,0.01,232,weatherlink.com 1.10,2013-03-10 16:11:00,
2013-03-10 09:26:00,46.6,47.0,30.36,South,188,2.0,3.0,100,0.00,,,0.01,274,weatherlink.com 1.10,2013-03-10 16:26:00,
2013-03-10 09:41:00,46.3,46.0,30.36,South,169,1.0,4.0,100,0.00,,,0.01,427,weatherlink.com 1.10,2013-03-10 16:41:00,
2013-03-10 09:57:00,47.7,48.0,30.35,South,173,1.0,5.0,100,0.00,,,0.01,462,weatherlink.com 1.10,2013-03-10 16:57:00,
2013-03-10 10:12:00,49.7,50.0,30.34,South,174,2.0,6.0,100,0.00,,,0.01,283,weatherlink.com 1.10,2013-03-10 17:12:00,
2013-03-10 10:27:00,51.3,51.0,30.34,SSW,205,5.0,6.0,99,0.00,,,0.01,656,weatherlink.com 1.10,2013-03-10 17:27:00,
2013-03-10 10:42:00,50.9,50.0,30.34,SSW,193,0.0,5.0,98,0.00,,,0.01,420,weatherlink.com 1.10,2013-03-10 17:42:00,
2013-03-10 10:57:00,54.9,53.0,30.34,SSW,194,1.0,2.0,92,0.00,,,0.01,679,weatherlink.com 1.10,2013-03-10 17:57:00,
2013-03-10 11:13:00,53.5,49.0,30.34,West,260,2.0,6.0,85,0.00,,,0.01,584,weatherlink.com 1.10,2013-03-10 18:13:00,
2013-03-10 11:27:00,54.1,50.0,30.33,SW,217,1.0,5.0,85,0.00,,,0.01,659,weatherlink.com 1.10,2013-03-10 18:27:00,
2013-03-10 11:42:00,56.2,52.0,30.33,SW,228,2.0,5.0,86,0.00,,,0.01,722,weatherlink.com 1.10,2013-03-10 18:42:00,
2013-03-10 11:58:00,56.9,52.0,30.32,SW,225,1.0,6.0,84,0.00,,,0.01,745,weatherlink.com 1.10,2013-03-10 18:58:00,
2013-03-10 12:13:00,57.3,52.0,30.32,SW,232,2.0,8.0,83,0.00,,,0.01,770,weatherlink.com 1.10,2013-03-10 19:13:00,
2013-03-10 12:28:00,57.4,51.0,30.32,SW,214,6.0,8.0,80,0.00,,,0.01,775,weatherlink.com 1.10,2013-03-10 19:28:00,
2013-03-10 12:43:00,57.8,53.0,30.32,SSW,200,5.0,9.0,83,0.00,,,0.01,729,weatherlink.com 1.10,2013-03-10 19:43:00,
2013-03-10 12:58:00,57.7,51.0,30.32,South,186,1.0,7.0,79,0.00,,,0.01,868,weatherlink.com 1.10,2013-03-10 19:58:00,
2013-03-10 13:13:00,60.2,51.0,30.31,South,186,4.0,7.0,72,0.00,,,0.01,837,weatherlink.com 1.10,2013-03-10 20:13:00,
2013-03-10 13:28:00,60.0,52.0,30.30,South,183,4.0,7.0,75,0.00,,,0.01,814,weatherlink.com 1.10,2013-03-10 20:28:00,
2013-03-10 13:44:00,60.8,51.0,30.30,WNW,283,5.0,8.0,71,0.00,,,0.01,807,weatherlink.com 1.10,2013-03-10 20:44:00,
2013-03-10 13:59:00,60.6,50.0,30.29,West,267,5.0,9.0,68,0.00,,,0.01,793,weatherlink.com 1.10,2013-03-10 20:59:00,
2013-03-10 14:14:00,60.3,50.0,30.29,West,271,4.0,8.0,69,0.00,,,0.01,795,weatherlink.com 1.10,2013-03-10 21:14:00,
2013-03-10 14:29:00,59.5,50.0,30.28,SW,218,1.0,6.0,70,0.00,,,0.01,775,weatherlink.com 1.10,2013-03-10 21:29:00,
2013-03-10 14:44:00,58.4,51.0,30.28,West,259,3.0,9.0,76,0.00,,,0.01,766,weatherlink.com 1.10,2013-03-10 21:44:00,
2013-03-10 14:59:00,61.0,51.0,30.28,West,280,4.0,5.0,70,0.00,,,0.01,721,weatherlink.com 1.10,2013-03-10 21:59:00,
2013-03-10 15:14:00,60.0,51.0,30.28,West,261,5.0,8.0,72,0.00,,,0.01,693,weatherlink.com 1.10,2013-03-10 22:14:00,
2013-03-10 15:29:00,61.2,52.0,30.28,NW,313,5.0,8.0,72,0.00,,,0.01,640,weatherlink.com 1.10,2013-03-10 22:29:00,
2013-03-10 15:44:00,58.3,51.0,30.29,WNW,302,4.0,11.0,77,0.00,,,0.01,591,weatherlink.com 1.10,2013-03-10 22:44:00,
2013-03-10 15:59:00,57.2,50.0,30.28,West,279,5.0,9.0,78,0.00,,,0.01,578,weatherlink.com 1.10,2013-03-10 22:59:00,
2013-03-10 16:15:00,58.9,52.0,30.28,West,279,5.0,6.0,77,0.00,,,0.01,533,weatherlink.com 1.10,2013-03-10 23:15:00,
2013-03-10 16:30:00,57.5,52.0,30.27,West,269,6.0,8.0,81,0.00,,,0.01,490,weatherlink.com 1.10,2013-03-10 23:30:00,
2013-03-10 16:45:00,58.1,52.0,30.27,West,268,5.0,6.0,80,0.00,,,0.01,450,weatherlink.com 1.10,2013-03-10 23:45:00,
2013-03-10 17:15:00,54.1,50.0,30.27,West,278,5.0,12.0,87,0.00,,,0.01,374,weatherlink.com 1.10,2013-03-11 00:15:00,
2013-03-10 17:30:00,53.2,50.0,30.27,West,278,10.0,11.0,88,0.00,,,0.01,258,weatherlink.com 1.10,2013-03-11 00:30:00,
2013-03-10 17:46:00,51.9,49.0,30.28,West,263,6.0,15.0,90,0.00,,,0.01,146,weatherlink.com 1.10,2013-03-11 00:46:00,
2013-03-10 18:00:00,51.5,49.0,30.28,WSW,238,8.0,13.0,91,0.00,,,0.01,204,weatherlink.com 1.10,2013-03-11 01:00:00,
2013-03-10 18:15:00,51.5,49.0,30.28,West,275,7.0,12.0,92,0.00,,,0.01,67,weatherlink.com 1.10,2013-03-11 01:15:00,
2013-03-10 18:30:00,51.0,49.0,30.28,WSW,240,6.0,9.0,92,0.00,,,0.01,60,weatherlink.com 1.10,2013-03-11 01:30:00,
2013-03-10 18:46:00,50.9,49.0,30.28,WNW,290,5.0,9.0,92,0.00,,,0.01,37,weatherlink.com 1.10,2013-03-11 01:46:00,
2013-03-10 19:01:00,50.5,49.0,30.28,WNW,296,6.0,8.0,93,0.00,,,0.01,11,weatherlink.com 1.10,2013-03-11 02:01:00,
2013-03-10 19:16:00,49.6,48.0,30.28,NW,307,0.0,1.0,94,0.00,,,0.01,0,weatherlink.com 1.10,2013-03-11 02:16:00,
2013-03-10 19:31:00,50.0,48.0,30.28,West,277,0.0,4.0,94,0.00,,,0.01,0,weatherlink.com 1.10,2013-03-11 02:31:00,
2013-03-10 19:46:00,48.7,47.0,30.28,West,275,0.0,1.0,94,0.00,,,0.01,0,weatherlink.com 1.10,2013-03-11 02:46:00,
2013-03-10 20:01:00,48.2,47.0,30.27,ESE,120,0.0,4.0,95,0.00,,,0.01,0,weatherlink.com 1.10,2013-03-11 03:01:00,
2013-03-10 20:16:00,48.1,47.0,30.28,ESE,118,1.0,3.0,95,0.00,,,0.01,0,weatherlink.com 1.10,2013-03-11 03:16:00,
2013-03-10 20:31:00,47.7,47.0,30.28,SE,131,2.0,4.0,96,0.00,,,0.01,0,weatherlink.com 1.10,2013-03-11 03:31:00,
2013-03-10 20:46:00,47.8,47.0,30.28,SE,132,0.0,6.0,96,0.00,,,0.01,0,weatherlink.com 1.10,2013-03-11 03:46:00,
2013-03-10 21:01:00,48.0,47.0,30.29,SE,126,1.0,2.0,96,0.00,,,0.01,0,weatherlink.com 1.10,2013-03-11 04:01:00,
2013-03-10 21:17:00,47.3,46.0,30.29,SE,129,0.0,2.0,96,0.00,,,0.01,0,weatherlink.com 1.10,2013-03-11 04:17:00,
2013-03-10 21:32:00,48.7,48.0,30.29,SE,138,0.0,1.0,97,0.00,,,0.01,0,weatherlink.com 1.10,2013-03-11 04:32:00,
2013-03-10 21:47:00,48.6,48.0,30.29,SE,138,0.0,2.0,97,0.00,,,0.01,0,weatherlink.com 1.10,2013-03-11 04:47:00,
2013-03-10 22:17:00,47.6,47.0,30.28,ESE,103,1.0,3.0,97,0.00,,,0.01,0,weatherlink.com 1.10,2013-03-11 05:17:00,
2013-03-10 22:33:00,48.1,47.0,30.28,ESE,115,2.0,3.0,97,0.00,,,0.01,0,weatherlink.com 1.10,2013-03-11 05:33:00,
2013-03-10 22:46:00,48.8,48.0,30.29,ESE,115,0.0,2.0,98,0.00,,,0.01,0,weatherlink.com 1.10,2013-03-11 05:46:00,
2013-03-10 23:02:00,49.0,48.0,30.29,SSE,149,0.0,4.0,97,0.00,,,0.01,0,weatherlink.com 1.10,2013-03-11 06:02:00,
2013-03-10 23:17:00,48.6,48.0,30.29,SSE,150,1.0,2.0,97,0.00,,,0.01,0,weatherlink.com 1.10,2013-03-11 06:17:00,
2013-03-10 23:33:00,48.4,48.0,30.28,SSE,150,0.0,0.0,97,0.00,,,0.01,0,weatherlink.com 1.10,2013-03-11 06:33:00,
2013-03-10 23:48:00,48.4,48.0,30.28,ESE,117,0.0,0.0,97,0.00,,,0.01,0,weatherlink.com 1.10,2013-03-11 06:48:00,